Dillon, Montana
Current Conditions -  °F | °C
As of 8:53 AM on Sunday 21 Dec 2014 (Local Time) from KDLN Reporting Station
Overcast Overcast  
Wind Chill: -1°   Ceiling: 3600
Heat Index:   Visibility: 10mi
Dew Point:   Wind: 12mph
Humidity: 83%   Direction: 210°SSW
Pressure: 29.58"   Gusts: NA
Location:  45.22°N, 112.64°W
Report Text: KDLN 211553Z AUTO 21010KT 10SM BKN036 BKN065 OVC080 03/01 A2958 RMK AO2 UPB19E42 SLP021 P0000 T00330006
Loading
Personal Weather Stations






























Interactive Weather Map New forecast layout! Learn more

10-Day Weather Forecast

Advertisements
Track Severe Weather on mobile